Time;durP1;ratioP1;P1;durP2;ratioP2;P2;SDS_P1;SDS_P2;PMS_P1;PMS_P2;Temp;Humidity;BMP_temperature;BMP_pressure;BME280_temperature;BME280_humidity;BME280_pressure;Samples;Min_cycle;Max_cycle;Signal;HPM_P1;HPM_P2
2023/08/28 16:09:36;;;;;;;2.80;1.77;;;;;;;18.31;100.00;95457.50;5074007;28;20946;-65
2023/08/28 16:12:03;;;;;;;2.63;1.80;;;;;;;18.35;100.00;95476.25;5055491;28;20207;-66
2023/08/28 16:14:29;;;;;;;2.25;1.65;;;;;;;18.00;100.00;95479.34;5055144;28;20208;-65
2023/08/28 16:16:56;;;;;;;2.83;1.73;;;;;;;18.21;100.00;95476.00;5055347;28;21081;-65
2023/08/28 16:19:23;;;;;;;3.20;1.90;;;;;;;18.07;100.00;95475.47;5054256;28;20196;-66
2023/08/28 16:21:51;;;;;;;3.28;2.10;;;;;;;17.84;100.00;95486.25;5055443;28;20236;-66
2023/08/28 16:24:17;;;;;;;3.25;2.17;;;;;;;17.49;100.00;95476.81;5053500;28;20197;-66
2023/08/28 16:26:46;;;;;;;5.28;2.10;;;;;;;17.40;100.00;95480.88;5051208;28;20224;-66
2023/08/28 16:29:12;;;;;;;2.90;2.17;;;;;;;17.44;100.00;95475.91;5055471;28;20251;-66
2023/08/28 16:31:39;;;;;;;4.03;2.58;;;;;;;17.21;100.00;95483.94;5055519;28;20208;-66
2023/08/28 16:34:05;;;;;;;4.18;2.35;;;;;;;17.35;100.00;95479.97;5053663;28;20205;-66
2023/08/28 16:36:33;;;;;;;3.75;2.28;;;;;;;17.22;100.00;95486.34;5053046;28;20231;-66
2023/08/28 16:39:00;;;;;;;3.50;2.35;;;;;;;17.85;100.00;95473.75;5054794;28;20208;-66
2023/08/28 16:41:26;;;;;;;3.13;2.03;;;;;;;17.56;100.00;95474.00;5053136;28;20624;-66
2023/08/28 16:43:54;;;;;;;2.95;1.95;;;;;;;17.32;100.00;95467.94;5054987;28;20207;-66
2023/08/28 16:46:21;;;;;;;3.80;2.28;;;;;;;17.89;100.00;95472.22;5053437;28;20235;-66
2023/08/28 16:48:47;;;;;;;3.58;2.17;;;;;;;17.56;100.00;95463.34;5053942;28;21005;-66
2023/08/28 16:51:14;;;;;;;3.05;2.15;;;;;;;17.70;100.00;95467.34;5054122;28;20196;-66
2023/08/28 16:53:40;;;;;;;2.70;1.95;;;;;;;17.54;100.00;95470.75;5054003;28;20204;-66
2023/08/28 16:56:07;;;;;;;2.75;1.77;;;;;;;17.42;100.00;95464.66;5052883;28;20224;-66
2023/08/28 16:58:33;;;;;;;3.70;2.33;;;;;;;16.93;100.00;95475.06;5053997;28;20203;-66
2023/08/28 17:01:01;;;;;;;3.33;2.17;;;;;;;17.49;100.00;95490.13;5054359;28;20201;-66
2023/08/28 17:03:28;;;;;;;3.08;2.17;;;;;;;17.48;100.00;95488.50;5054780;28;20196;-66
2023/08/28 17:05:56;;;;;;;2.55;1.65;;;;;;;17.17;100.00;95491.56;5054824;28;20228;-66
2023/08/28 17:08:24;;;;;;;2.30;1.52;;;;;;;17.06;100.00;95490.78;5052851;28;20223;-66
2023/08/28 17:10:50;;;;;;;4.13;1.38;;;;;;;17.26;100.00;95490.19;5060436;28;20205;-66
2023/08/28 17:13:17;;;;;;;2.47;1.58;;;;;;;17.46;100.00;95503.09;5059145;28;20218;-66
2023/08/28 17:15:44;;;;;;;6.13;2.20;;;;;;;17.06;100.00;95502.25;5057808;28;20200;-66
2023/08/28 17:18:12;;;;;;;1.95;1.52;;;;;;;17.65;100.00;95507.22;5054467;28;20193;-66
2023/08/28 17:20:39;;;;;;;2.53;1.63;;;;;;;16.93;100.00;95507.00;5050258;28;20212;-66
2023/08/28 17:23:05;;;;;;;1.90;1.30;;;;;;;16.87;100.00;95510.59;5045340;28;20201;-66
2023/08/28 17:25:32;;;;;;;2.70;1.88;;;;;;;17.09;100.00;95512.41;5048866;28;20201;-66
2023/08/28 17:27:58;;;;;;;3.05;1.55;;;;;;;17.01;100.00;95507.44;5042945;28;20225;-65
2023/08/28 17:30:25;;;;;;;1.83;1.30;;;;;;;17.19;100.00;95513.44;5040340;28;20209;-65
2023/08/28 17:32:55;;;;;;;3.25;1.75;;;;;;;17.54;100.00;95514.19;5042252;28;20209;-66
2023/08/28 17:35:23;;;;;;;2.35;1.52;;;;;;;17.61;100.00;95511.41;5045275;28;20201;-65
2023/08/28 17:37:50;;;;;;;2.35;1.70;;;;;;;17.32;100.00;95517.72;5037406;28;20224;-66
2023/08/28 17:40:16;;;;;;;1.98;1.55;;;;;;;16.74;100.00;95508.19;5039445;28;20224;-66
2023/08/28 17:42:43;;;;;;;4.13;2.00;;;;;;;17.00;100.00;95529.78;5040397;28;20686;-66
2023/08/28 17:45:10;;;;;;;2.58;1.45;;;;;;;17.45;100.00;95520.13;5038610;28;20212;-66
2023/08/28 17:47:37;;;;;;;3.53;1.83;;;;;;;17.10;100.00;95514.03;5042545;28;20833;-66
2023/08/28 17:50:04;;;;;;;1.95;1.38;;;;;;;17.05;100.00;95515.78;5041140;28;20197;-66
2023/08/28 17:52:32;;;;;;;3.65;2.00;;;;;;;17.48;100.00;95515.13;5037596;28;20205;-65
2023/08/28 17:54:58;;;;;;;2.72;1.38;;;;;;;17.01;100.00;95523.44;5038538;28;20201;-65
2023/08/28 17:57:25;;;;;;;2.85;1.70;;;;;;;17.08;100.00;95518.78;5037877;28;20229;-65
2023/08/28 17:59:52;;;;;;;2.20;1.50;;;;;;;16.79;100.00;95529.56;5036026;28;20201;-65
2023/08/28 18:02:18;;;;;;;2.65;1.90;;;;;;;16.96;100.00;95517.19;5035606;28;20200;-66
2023/08/28 18:04:45;;;;;;;3.50;1.50;;;;;;;16.86;100.00;95522.28;5041610;28;20209;-66
2023/08/28 18:07:12;;;;;;;2.75;1.98;;;;;;;16.85;100.00;95529.47;5036262;28;20229;-66
2023/08/28 18:09:40;;;;;;;2.70;1.88;;;;;;;17.12;100.00;95534.06;5038447;28;20771;-66
2023/08/28 18:12:07;;;;;;;2.15;1.45;;;;;;;17.36;100.00;95524.19;5037859;28;20198;-66
2023/08/28 18:14:34;;;;;;;2.55;1.77;;;;;;;17.02;100.00;95534.88;5037396;28;20212;-66
2023/08/28 18:17:00;;;;;;;2.20;1.67;;;;;;;16.96;100.00;95541.16;5037488;28;20268;-66
2023/08/28 18:19:27;;;;;;;5.10;1.80;;;;;;;16.84;100.00;95535.00;5038544;28;20201;-66
2023/08/28 18:21:53;;;;;;;3.72;1.92;;;;;;;16.74;100.00;95540.13;5040611;28;20215;-66
2023/08/28 18:24:20;;;;;;;2.78;1.92;;;;;;;17.11;100.00;95543.09;5039506;28;20396;-65
2023/08/28 18:26:50;;;;;;;3.28;2.47;;;;;;;17.36;100.00;95541.00;5035241;28;20231;-65
2023/08/28 18:29:17;;;;;;;3.35;2.28;;;;;;;17.16;100.00;95543.19;5038249;28;20248;-65
2023/08/28 18:31:44;;;;;;;4.25;2.22;;;;;;;16.85;100.00;95555.25;5038714;28;20209;-66
2023/08/28 18:34:10;;;;;;;3.88;2.42;;;;;;;16.95;100.00;95563.47;5038451;28;20546;-65
2023/08/28 18:36:37;;;;;;;4.30;2.75;;;;;;;16.98;100.00;95563.00;5038176;28;20809;-66
2023/08/28 18:39:05;;;;;;;4.57;2.83;;;;;;;16.88;100.00;95566.25;5037629;28;20203;-65
2023/08/28 18:41:31;;;;;;;3.92;2.67;;;;;;;17.21;100.00;95564.59;5037466;28;20206;-65
2023/08/28 18:43:59;;;;;;;4.00;2.60;;;;;;;17.35;100.00;95562.50;5037573;28;20209;-65
2023/08/28 18:46:25;;;;;;;4.38;2.67;;;;;;;16.80;100.00;95569.25;5036156;28;20225;-65
2023/08/28 18:48:52;;;;;;;4.63;2.60;;;;;;;17.65;100.00;95582.59;5038108;28;20611;-65
2023/08/28 18:51:18;;;;;;;4.63;2.78;;;;;;;16.91;100.00;95583.59;5039190;28;20193;-65
2023/08/28 18:53:45;;;;;;;4.03;2.47;;;;;;;16.79;100.00;95580.13;5036315;28;20208;-65
2023/08/28 18:56:12;;;;;;;3.60;2.35;;;;;;;16.82;100.00;95580.47;5036788;28;20227;-65
2023/08/28 18:58:38;;;;;;;3.83;2.65;;;;;;;17.07;100.00;95577.56;5037809;28;20211;-65
2023/08/28 19:01:06;;;;;;;3.67;2.05;;;;;;;17.44;100.00;95572.59;5037096;28;20748;-65
2023/08/28 19:03:33;;;;;;;4.60;2.53;;;;;;;16.98;100.00;95573.66;5037398;28;20216;-65
2023/08/28 19:06:00;;;;;;;8.85;3.80;;;;;;;17.21;100.00;95582.44;5037814;28;21113;-65
2023/08/28 19:08:27;;;;;;;4.45;2.90;;;;;;;17.40;100.00;95574.09;5037360;28;20545;-65
2023/08/28 19:10:53;;;;;;;5.90;2.60;;;;;;;17.12;100.00;95565.22;5036946;28;20205;-65
2023/08/28 19:13:20;;;;;;;4.68;2.72;;;;;;;17.03;100.00;95574.59;5037952;28;20201;-65
2023/08/28 19:15:47;;;;;;;6.30;2.70;;;;;;;17.23;100.00;95583.00;5036229;28;20221;-65
2023/08/28 19:18:16;;;;;;;4.35;2.35;;;;;;;17.35;100.00;95587.31;5036962;28;20197;-65
2023/08/28 19:20:43;;;;;;;4.53;2.50;;;;;;;17.28;100.00;95591.13;5036716;28;20233;-66
2023/08/28 19:23:10;;;;;;;4.75;2.80;;;;;;;16.99;100.00;95602.69;5034459;28;20208;-66
2023/08/28 19:25:37;;;;;;;3.85;2.67;;;;;;;17.06;100.00;95594.63;5036003;28;20204;-66
2023/08/28 19:28:04;;;;;;;4.40;2.85;;;;;;;17.51;100.00;95585.78;5036619;28;20212;-66
2023/08/28 19:30:30;;;;;;;4.60;2.70;;;;;;;17.34;100.00;95588.34;5037312;28;20634;-65
2023/08/28 19:32:56;;;;;;;4.43;2.58;;;;;;;17.45;100.00;95592.88;5036655;28;20212;-66
2023/08/28 19:35:24;;;;;;;5.38;2.75;;;;;;;17.26;100.00;95603.88;5045008;28;20209;-66
2023/08/28 19:37:51;;;;;;;3.53;2.78;;;;;;;17.15;100.00;95597.47;5035666;28;20599;-66
2023/08/28 19:40:17;;;;;;;4.90;3.28;;;;;;;17.12;100.00;95592.63;5036697;28;20197;-66
2023/08/28 19:42:44;;;;;;;3.53;2.38;;;;;;;17.18;100.00;95590.88;5036716;28;20631;-68
2023/08/28 19:45:11;;;;;;;4.28;2.88;;;;;;;17.30;100.00;95592.53;5036703;28;20201;-66
2023/08/28 19:47:38;;;;;;;4.15;2.95;;;;;;;17.06;100.00;95586.63;5035721;28;20229;-66
2023/08/28 19:50:06;;;;;;;5.95;2.63;;;;;;;17.02;100.00;95588.09;5035980;28;20282;-66
2023/08/28 19:52:34;;;;;;;5.70;2.85;;;;;;;16.98;100.00;95589.63;5034732;28;20204;-65
2023/08/28 19:55:04;;;;;;;4.95;2.58;;;;;;;17.11;100.00;95583.00;5035735;28;20204;-65
2023/08/28 19:57:30;;;;;;;3.75;2.60;;;;;;;17.13;100.00;95572.97;5036504;28;20233;-66
2023/08/28 19:59:57;;;;;;;5.35;3.53;;;;;;;16.90;100.00;95572.13;5035858;28;20209;-65
2023/08/28 20:02:24;;;;;;;6.32;3.17;;;;;;;16.80;100.00;95584.41;5035450;28;20709;-66
2023/08/28 20:04:51;;;;;;;3.67;2.33;;;;;;;17.17;100.00;95579.44;5036138;28;20216;-66
2023/08/28 20:07:18;;;;;;;4.95;3.15;;;;;;;16.92;100.00;95582.56;5032941;28;20313;-66
2023/08/28 20:09:46;;;;;;;4.53;2.70;;;;;;;17.24;100.00;95569.47;5033962;28;20221;-66
2023/08/28 20:12:13;;;;;;;6.22;3.10;;;;;;;16.98;100.00;95570.97;5040968;28;20294;-66
2023/08/28 20:14:40;;;;;;;5.70;2.90;;;;;;;17.21;100.00;95575.25;5034274;28;20205;-65
2023/08/28 20:17:08;;;;;;;5.22;2.60;;;;;;;17.01;100.00;95574.00;5031185;28;20221;-66
2023/08/28 20:19:35;;;;;;;3.85;2.50;;;;;;;17.18;100.00;95582.88;5037184;28;20197;-65
2023/08/28 20:22:03;;;;;;;4.90;2.88;;;;;;;17.71;100.00;95580.88;5033693;28;20201;-66
2023/08/28 20:24:32;;;;;;;4.38;2.78;;;;;;;17.54;100.00;95586.13;5042331;28;21022;-66
2023/08/28 20:27:00;;;;;;;5.32;2.90;;;;;;;17.53;100.00;95579.19;5035996;28;20814;-66
2023/08/28 20:29:26;;;;;;;4.00;2.40;;;;;;;17.02;100.00;95585.44;5042655;28;20271;-66
2023/08/28 20:31:53;;;;;;;4.43;2.60;;;;;;;16.96;100.00;95583.72;5035847;28;21014;-65
2023/08/28 20:34:19;;;;;;;4.20;2.65;;;;;;;16.96;100.00;95589.06;5037117;28;20208;-66
2023/08/28 20:36:47;;;;;;;6.05;3.47;;;;;;;17.19;100.00;95587.97;5035507;28;20691;-66
2023/08/28 20:39:13;;;;;;;6.07;2.88;;;;;;;16.85;100.00;95600.50;5033831;28;20255;-65
2023/08/28 20:41:40;;;;;;;4.20;2.90;;;;;;;16.92;100.00;95601.22;5034222;28;20205;-66
2023/08/28 20:44:09;;;;;;;3.80;2.72;;;;;;;17.00;100.00;95608.84;5033813;28;20201;-66
2023/08/28 20:46:37;;;;;;;4.78;3.08;;;;;;;16.64;100.00;95603.72;5033854;28;20269;-65
2023/08/28 20:49:05;;;;;;;4.18;2.83;;;;;;;16.99;100.00;95601.88;5034777;28;20264;-65
2023/08/28 20:51:32;;;;;;;3.58;2.45;;;;;;;17.09;100.00;95592.28;5033636;28;20217;-66
2023/08/28 20:53:59;;;;;;;4.72;2.90;;;;;;;17.03;100.00;95603.88;5034110;28;20267;-66
2023/08/28 20:56:26;;;;;;;4.95;3.13;;;;;;;16.76;100.00;95601.88;5036772;28;20221;-66
2023/08/28 20:58:52;;;;;;;4.55;2.83;;;;;;;16.54;100.00;95598.94;5036502;28;21378;-66
2023/08/28 21:01:20;;;;;;;6.05;2.90;;;;;;;16.93;100.00;95593.00;5037287;28;20742;-66
2023/08/28 21:03:47;;;;;;;5.97;3.42;;;;;;;16.55;100.00;95589.13;5038699;28;20288;-66
2023/08/28 21:06:13;;;;;;;4.57;3.00;;;;;;;16.64;100.00;95579.78;5041931;28;20707;-66
2023/08/28 21:08:40;;;;;;;5.50;2.92;;;;;;;16.74;100.00;95572.84;5038513;28;20228;-66
2023/08/28 21:11:06;;;;;;;4.65;2.75;;;;;;;16.75;100.00;95568.31;5038855;28;20314;-66
2023/08/28 21:13:33;;;;;;;5.60;3.17;;;;;;;16.78;100.00;95573.19;5039853;28;20205;-66
2023/08/28 21:16:01;;;;;;;4.25;2.70;;;;;;;16.90;100.00;95555.38;5038406;28;20723;-66
2023/08/28 21:18:29;;;;;;;4.75;2.70;;;;;;;16.89;100.00;95554.56;5038394;28;20744;-66
2023/08/28 21:20:56;;;;;;;5.57;2.95;;;;;;;16.63;100.00;95556.88;5039077;28;20794;-66
2023/08/28 21:23:22;;;;;;;7.30;3.28;;;;;;;17.02;100.00;95556.16;5038964;28;20205;-66
2023/08/28 21:25:49;;;;;;;6.30;3.20;;;;;;;17.08;100.00;95568.56;5039998;28;20240;-66
2023/08/28 21:28:15;;;;;;;4.72;2.70;;;;;;;17.06;100.00;95562.66;5038762;28;20205;-66
2023/08/28 21:30:42;;;;;;;4.72;3.10;;;;;;;16.97;100.00;95550.72;5042981;28;20224;-66
2023/08/28 21:33:08;;;;;;;6.50;3.30;;;;;;;17.05;100.00;95564.50;5039244;28;20209;-66
2023/08/28 21:35:36;;;;;;;5.20;3.33;;;;;;;17.30;100.00;95565.91;5042396;28;20205;-66
2023/08/28 21:38:03;;;;;;;4.57;3.03;;;;;;;17.21;100.00;95563.81;5038062;28;20807;-66
2023/08/28 21:40:31;;;;;;;4.57;2.65;;;;;;;17.10;100.00;95559.28;5038874;28;20197;-66
2023/08/28 21:42:57;;;;;;;4.65;3.03;;;;;;;16.92;100.00;95563.94;5039607;28;20208;-66
2023/08/28 21:45:24;;;;;;;4.35;2.80;;;;;;;17.21;100.00;95564.59;5039185;28;20675;-65
2023/08/28 21:47:50;;;;;;;3.75;2.63;;;;;;;17.12;100.00;95568.66;5039628;28;20225;-66
2023/08/28 21:50:18;;;;;;;4.93;2.83;;;;;;;17.19;100.00;95569.34;5038739;28;20224;-66
2023/08/28 21:52:45;;;;;;;4.93;2.60;;;;;;;17.52;100.00;95566.09;5039297;28;20208;-65
2023/08/28 21:55:13;;;;;;;4.93;3.33;;;;;;;17.23;100.00;95559.88;5039266;28;20585;-65
2023/08/28 21:57:39;;;;;;;4.53;2.67;;;;;;;17.10;100.00;95556.63;5039094;28;20236;-65
2023/08/28 22:00:09;;;;;;;5.82;3.58;;;;;;;17.23;100.00;95567.03;5039416;28;20210;-65
2023/08/28 22:02:35;;;;;;;5.78;3.08;;;;;;;16.97;100.00;95559.53;5038912;28;20925;-65
2023/08/28 22:05:02;;;;;;;4.57;2.70;;;;;;;16.99;100.00;95557.44;5040687;28;20201;-65
2023/08/28 22:07:29;;;;;;;5.70;2.70;;;;;;;16.91;100.00;95551.69;5038000;28;20236;-66
2023/08/28 22:09:57;;;;;;;4.63;3.00;;;;;;;17.25;100.00;95543.69;5039902;28;20701;-66
2023/08/28 22:12:23;;;;;;;4.30;2.90;;;;;;;16.76;100.00;95548.66;5042164;28;20209;-66
2023/08/28 22:14:50;;;;;;;4.20;2.67;;;;;;;16.84;100.00;95540.31;5039667;28;20263;-65
2023/08/28 22:17:16;;;;;;;4.38;3.20;;;;;;;16.90;100.00;95531.41;5040132;28;20221;-66
2023/08/28 22:19:43;;;;;;;4.43;2.60;;;;;;;16.74;100.00;95524.94;5038833;28;20205;-66
2023/08/28 22:22:09;;;;;;;4.32;2.58;;;;;;;16.97;100.00;95526.78;5038961;28;20216;-66
2023/08/28 22:24:37;;;;;;;4.78;2.80;;;;;;;17.26;100.00;95524.81;5038922;28;20213;-65
2023/08/28 22:27:05;;;;;;;3.83;2.25;;;;;;;17.35;100.00;95523.41;5040620;28;20232;-67
2023/08/28 22:29:32;;;;;;;3.85;2.38;;;;;;;17.26;100.00;95514.16;5038549;28;20240;-65
2023/08/28 22:31:58;;;;;;;3.85;2.67;;;;;;;17.07;100.00;95516.34;5039987;28;20205;-66
2023/08/28 22:34:26;;;;;;;4.38;2.70;;;;;;;17.27;100.00;95521.09;5043257;28;20205;-66
2023/08/28 22:36:52;;;;;;;4.18;2.05;;;;;;;17.31;100.00;95516.94;5038356;28;20224;-65
2023/08/28 22:39:19;;;;;;;3.65;2.20;;;;;;;17.00;100.00;95519.13;5039116;28;20569;-65
2023/08/28 22:41:46;;;;;;;2.67;1.70;;;;;;;17.36;100.00;95518.88;5038582;28;20659;-66
2023/08/28 22:44:14;;;;;;;3.60;2.40;;;;;;;17.47;100.00;95526.03;5038603;28;20212;-65
2023/08/28 22:46:40;;;;;;;3.72;2.20;;;;;;;17.53;100.00;95525.91;5037971;28;20228;-65
2023/08/28 22:49:07;;;;;;;3.50;2.03;;;;;;;17.36;100.00;95534.84;5038642;28;20201;-66
2023/08/28 22:51:33;;;;;;;2.42;1.85;;;;;;;16.79;100.00;95542.88;5038163;28;20224;-65
2023/08/28 22:54:00;;;;;;;2.30;1.92;;;;;;;17.21;100.00;95550.50;5038964;28;20209;-65
2023/08/28 22:56:27;;;;;;;4.45;2.42;;;;;;;17.18;100.00;95538.47;5038655;28;20229;-65
2023/08/28 22:58:53;;;;;;;2.72;2.10;;;;;;;17.17;100.00;95536.00;5038623;28;20205;-66
2023/08/28 23:01:22;;;;;;;4.15;2.58;;;;;;;17.52;100.00;95532.25;5037489;28;20201;-66
2023/08/28 23:03:48;;;;;;;3.17;2.30;;;;;;;17.37;100.00;95533.81;5038067;28;20211;-64
2023/08/28 23:06:15;;;;;;;4.22;2.42;;;;;;;17.45;100.00;95541.44;5038520;28;20224;-66
2023/08/28 23:08:41;;;;;;;3.95;2.20;;;;;;;17.57;100.00;95537.69;5037582;28;20212;-66
2023/08/28 23:11:09;;;;;;;3.55;2.58;;;;;;;17.59;100.00;95546.28;5038100;28;20221;-65
2023/08/28 23:13:35;;;;;;;4.55;2.67;;;;;;;17.40;100.00;95542.16;5037666;28;20209;-66
2023/08/28 23:16:02;;;;;;;3.28;2.13;;;;;;;17.61;100.00;95538.03;5037221;28;20229;-66
2023/08/28 23:18:30;;;;;;;3.33;2.20;;;;;;;17.79;100.00;95541.31;5037046;28;20217;-66
2023/08/28 23:20:57;;;;;;;2.53;2.17;;;;;;;17.39;100.00;95543.19;5037920;28;20205;-66
2023/08/28 23:23:23;;;;;;;4.53;2.10;;;;;;;18.00;100.00;95535.34;5037343;28;20212;-66
2023/08/28 23:25:53;;;;;;;4.93;2.13;;;;;;;17.80;100.00;95540.28;5040904;28;20220;-65
2023/08/28 23:28:19;;;;;;;3.50;2.25;;;;;;;17.28;100.00;95544.00;5040635;28;20763;-65
2023/08/28 23:30:46;;;;;;;3.05;2.05;;;;;;;17.43;100.00;95541.66;5038843;28;20271;-66
2023/08/28 23:33:12;;;;;;;4.28;2.38;;;;;;;17.30;100.00;95541.94;5038932;28;20587;-66
2023/08/28 23:35:40;;;;;;;3.45;2.42;;;;;;;17.68;100.00;95528.88;5043305;28;20200;-66
2023/08/28 23:38:07;;;;;;;3.70;2.45;;;;;;;17.53;100.00;95533.09;5036557;28;20224;-66
2023/08/28 23:40:35;;;;;;;4.05;2.42;;;;;;;17.77;100.00;95522.09;5037462;28;20686;-66
2023/08/28 23:43:02;;;;;;;3.13;2.20;;;;;;;17.67;100.00;95527.25;5037923;28;20229;-66
2023/08/28 23:45:28;;;;;;;2.92;1.92;;;;;;;17.58;100.00;95518.00;5036608;28;20212;-66
2023/08/28 23:47:55;;;;;;;2.90;2.28;;;;;;;17.67;100.00;95521.09;5036905;28;20209;-66
2023/08/28 23:50:21;;;;;;;4.63;2.50;;;;;;;17.60;100.00;95517.75;5040902;28;20221;-66
2023/08/28 23:52:49;;;;;;;3.97;2.42;;;;;;;17.79;100.00;95512.81;5037434;28;20201;-66
2023/08/28 23:55:16;;;;;;;3.75;2.38;;;;;;;17.52;100.00;95513.63;5037028;28;20209;-66
2023/08/28 23:57:42;;;;;;;4.60;2.72;;;;;;;17.77;100.00;95517.56;5036685;28;20229;-66
